Pawnee, Texas
Current Conditions -  °F | °C
As of 7:55 PM on Thursday 18 Dec 2014 (Local Time) from KBEA Reporting Station
Haze Haze  
Wind Chill: 64°   Ceiling: 700
Heat Index: 64°   Visibility: 5mi
Dew Point: 63°   Wind: 8mph
Humidity: 98%   Direction: 60°ENE
Pressure: 30.01"   Gusts: NA
Location:  28.65°N, 98°W
Report Text: KBEA 190155Z AUTO 06007KT 5SM BR OVC007 18/17 A3001 RMK AO2 T01750172
Loading
Personal Weather Stations






























Interactive Weather Map New forecast layout! Learn more

10-Day Weather Forecast

Advertisements
Track Severe Weather on mobile